Terminal Aerodrome Forecast
Issued by NWS North Platte, NE

Home | Current Version | Previous Version | Text Only | Print | Product List | Glossary On
Versions: 1 2 3 4 5 6 7 8 9 10 11 12 13 14 15 16 17 18 19 20 21 22 23 24 25 26 27 28 29 30 31 32 33
328
FTUS43 KLBF 140520
TAFVTN
TAF
KVTN 140520Z 1406/1506 30016G26KT P6SM BKN016 OVC050
      TEMPO 1406/1408 5SM -SHSN SCT015 OVC035
     FM140800 30014G23KT P6SM SCT250
     FM141400 29012KT P6SM SCT250=

USA.gov is the U.S. government's official web portal to all federal, state and local government web resources and services.